createdAt,value
2022-11-01T00:01:29.356Z,4.47
2022-11-01T00:03:56.279Z,4.30
2022-11-01T00:06:23.203Z,4.03
2022-11-01T00:08:49.898Z,4.00
2022-11-01T00:11:17.876Z,5.00
2022-11-01T00:13:49.048Z,4.87
2022-11-01T00:16:17.310Z,4.43
2022-11-01T00:18:43.979Z,5.33
2022-11-01T00:21:11.791Z,5.33
2022-11-01T00:23:39.541Z,5.53
2022-11-01T00:26:06.871Z,5.27
2022-11-01T00:28:34.343Z,5.40
2022-11-01T00:31:01.465Z,5.17
2022-11-01T00:33:28.055Z,4.93
2022-11-01T00:35:59.340Z,5.50
2022-11-01T00:38:25.957Z,5.00
2022-11-01T00:40:52.624Z,4.80
2022-11-01T00:45:51.395Z,4.77
2022-11-01T00:48:18.012Z,5.43
2022-11-01T00:50:44.619Z,5.33
2022-11-01T00:53:12.626Z,5.77
2022-11-01T00:55:39.428Z,6.33
2022-11-01T00:58:07.179Z,5.83
2022-11-01T01:00:34.107Z,4.83
2022-11-01T01:03:01.073Z,6.20
2022-11-01T01:05:28.032Z,4.63
2022-11-01T01:07:54.652Z,6.17
2022-11-01T01:10:21.376Z,5.60
2022-11-01T01:12:47.980Z,6.03
2022-11-01T01:15:15.159Z,6.40
2022-11-01T01:17:41.792Z,6.10
2022-11-01T01:20:09.289Z,5.67
2022-11-01T01:22:35.891Z,6.43
2022-11-01T01:25:02.539Z,6.43
2022-11-01T01:27:29.162Z,5.43
2022-11-01T01:29:55.734Z,6.40
2022-11-01T01:32:24.215Z,6.50
2022-11-01T01:34:51.267Z,6.60
2022-11-01T01:37:17.932Z,6.03
2022-11-01T01:39:44.552Z,6.77
2022-11-01T01:42:23.658Z,6.57
2022-11-01T01:44:56.131Z,6.40
2022-11-01T01:47:25.421Z,6.33
2022-11-01T01:50:02.575Z,7.33
2022-11-01T01:52:33.031Z,6.20
2022-11-01T01:55:04.773Z,6.00
2022-11-01T01:57:31.486Z,7.00
2022-11-01T01:59:58.528Z,6.43
2022-11-01T02:02:25.482Z,6.13
2022-11-01T02:04:57.057Z,5.67
2022-11-01T02:07:24.394Z,6.00
2022-11-01T02:09:51.571Z,5.90
2022-11-01T02:12:18.894Z,6.37
2022-11-01T02:14:46.114Z,6.40
2022-11-01T02:17:43.819Z,5.70
2022-11-01T02:20:25.302Z,6.20
2022-11-01T02:23:09.935Z,5.40
2022-11-01T02:25:53.360Z,5.50
2022-11-01T02:28:43.641Z,5.33
2022-11-01T02:31:44.235Z,5.33
2022-11-01T02:34:23.141Z,5.80
2022-11-01T02:36:59.066Z,6.07
2022-11-01T02:39:34.115Z,5.10
2022-11-01T02:42:11.362Z,5.97
2022-11-01T02:44:49.559Z,5.40
2022-11-01T02:47:16.543Z,5.30
2022-11-01T02:49:49.520Z,5.33
2022-11-01T02:52:20.695Z,4.80
2022-11-01T02:54:55.882Z,5.90
2022-11-01T02:57:34.527Z,4.93
2022-11-01T03:00:16.422Z,5.60
2022-11-01T03:02:44.887Z,5.43
2022-11-01T03:05:35.075Z,5.20
2022-11-01T03:08:06.170Z,5.73
2022-11-01T03:11:03.729Z,4.13
2022-11-01T03:14:00.979Z,4.70
2022-11-01T03:16:46.748Z,4.00
2022-11-01T03:19:34.689Z,4.63
2022-11-01T03:22:10.117Z,4.70
2022-11-01T03:24:57.350Z,4.50
2022-11-01T03:27:32.570Z,4.87
2022-11-01T03:30:04.832Z,4.90
2022-11-01T03:32:43.893Z,4.53
2022-11-01T03:35:15.654Z,4.83
2022-11-01T03:37:45.623Z,4.10
2022-11-01T03:40:14.461Z,4.20
2022-11-01T03:42:45.433Z,5.40
2022-11-01T03:45:14.457Z,4.40
2022-11-01T03:47:41.684Z,4.60
2022-11-01T03:50:18.037Z,4.60
2022-11-01T03:52:45.490Z,4.43
2022-11-01T03:55:20.019Z,4.60
2022-11-01T03:57:51.516Z,4.60
2022-11-01T04:00:22.809Z,4.23
2022-11-01T04:02:50.745Z,4.70
2022-11-01T04:05:18.509Z,4.90
2022-11-01T04:07:45.715Z,4.93
2022-11-01T04:10:13.580Z,4.90
2022-11-01T04:12:40.894Z,5.07
2022-11-01T04:15:26.234Z,4.30
2022-11-01T04:18:29.785Z,4.87
2022-11-01T04:20:57.106Z,4.77
2022-11-01T04:23:23.789Z,4.23
2022-11-01T04:25:50.408Z,4.80
2022-11-01T04:28:17.327Z,4.80
2022-11-01T04:30:43.948Z,4.00
2022-11-01T04:33:10.779Z,4.90
2022-11-01T04:35:38.108Z,4.30
2022-11-01T04:38:06.180Z,4.57
2022-11-01T04:40:34.262Z,4.30
2022-11-01T04:43:00.974Z,4.20
2022-11-01T04:45:27.990Z,5.50
2022-11-01T04:48:16.857Z,4.43
2022-11-01T04:50:45.413Z,4.40
2022-11-01T04:53:12.022Z,4.20
2022-11-01T04:55:38.662Z,4.07
2022-11-01T04:58:06.573Z,4.80
2022-11-01T05:00:34.471Z,4.47
2022-11-01T05:03:07.165Z,4.33
2022-11-01T05:05:35.061Z,4.47
2022-11-01T05:08:08.670Z,4.40
2022-11-01T05:10:37.214Z,4.50
2022-11-01T05:13:04.420Z,4.57
2022-11-01T05:15:31.700Z,5.00
2022-11-01T05:17:58.334Z,4.43
2022-11-01T05:20:25.014Z,4.87
2022-11-01T05:22:51.954Z,5.37
2022-11-01T05:25:18.555Z,4.20
2022-11-01T05:27:45.172Z,4.57
2022-11-01T05:30:12.563Z,4.53
2022-11-01T05:32:39.294Z,4.13
2022-11-01T05:35:06.241Z,4.70
2022-11-01T05:37:33.002Z,3.90
2022-11-01T05:39:59.699Z,4.50
2022-11-01T05:42:26.334Z,3.77
2022-11-01T05:44:52.957Z,4.13
2022-11-01T05:47:20.489Z,4.13
2022-11-01T05:49:47.055Z,4.10
2022-11-01T05:52:13.609Z,4.03
2022-11-01T05:54:40.178Z,3.77
2022-11-01T05:57:06.732Z,3.80
2022-11-01T05:59:33.362Z,4.13
2022-11-01T06:02:00.059Z,4.00
2022-11-01T06:04:26.711Z,3.60
2022-11-01T06:06:53.599Z,3.83
2022-11-01T06:09:20.323Z,4.07
2022-11-01T06:11:46.888Z,3.57
2022-11-01T06:14:13.539Z,3.00
2022-11-01T06:16:40.113Z,3.70
2022-11-01T06:19:06.729Z,2.97
2022-11-01T06:21:33.590Z,3.03
2022-11-01T06:24:00.469Z,3.80
2022-11-01T06:26:27.085Z,2.80
2022-11-01T06:28:53.689Z,2.50
2022-11-01T06:31:20.248Z,2.57
2022-11-01T06:33:49.199Z,2.87
2022-11-01T06:36:15.775Z,3.03
2022-11-01T06:38:42.368Z,2.80
2022-11-01T06:41:09.042Z,3.07
2022-11-01T06:43:35.624Z,2.10
2022-11-01T06:46:02.642Z,2.10
2022-11-01T06:48:29.629Z,1.73
2022-11-01T06:50:56.204Z,2.03
2022-11-01T06:53:24.013Z,1.90
2022-11-01T06:55:52.143Z,1.23
2022-11-01T06:58:19.477Z,1.77
2022-11-01T07:00:46.212Z,1.57
2022-11-01T07:03:14.423Z,1.70
2022-11-01T07:05:41.821Z,1.80
2022-11-01T07:08:11.535Z,1.20
2022-11-01T07:10:39.853Z,1.07
2022-11-01T07:13:07.462Z,1.40
2022-11-01T07:15:34.443Z,1.27
2022-11-01T07:18:04.251Z,1.40
2022-11-01T07:20:36.401Z,1.17
2022-11-01T07:23:05.371Z,1.30
2022-11-01T07:25:33.141Z,0.93
2022-11-01T07:27:59.812Z,0.90
2022-11-01T07:30:26.991Z,1.33
2022-11-01T07:33:02.151Z,1.20
2022-11-01T07:35:29.731Z,1.23
2022-11-01T07:38:01.984Z,1.17
2022-11-01T07:40:31.473Z,1.10
2022-11-01T07:43:00.081Z,1.20
2022-11-01T07:45:28.879Z,1.33
2022-11-01T07:48:02.548Z,1.10
2022-11-01T07:50:31.363Z,1.00
2022-11-01T07:53:05.164Z,0.90
2022-11-01T07:55:32.137Z,1.47
2022-11-01T07:57:59.201Z,1.60
2022-11-01T08:00:26.903Z,1.00
2022-11-01T08:03:01.208Z,1.27
2022-11-01T08:05:28.814Z,1.00
2022-11-01T08:07:55.542Z,1.80
2022-11-01T08:10:22.273Z,1.10
2022-11-01T08:12:49.252Z,1.00
2022-11-01T08:15:15.932Z,1.20
2022-11-01T08:17:42.585Z,1.10
2022-11-01T08:20:09.954Z,1.10
2022-11-01T08:22:40.627Z,0.90
2022-11-01T08:25:08.181Z,0.80
2022-11-01T08:27:35.535Z,1.10
2022-11-01T08:30:02.672Z,0.87
2022-11-01T08:32:29.241Z,0.90
2022-11-01T08:34:55.834Z,1.17
2022-11-01T08:37:22.460Z,1.60
2022-11-01T08:39:49.121Z,1.63
2022-11-01T08:42:15.714Z,2.07
2022-11-01T08:44:42.354Z,1.43
2022-11-01T08:47:09.299Z,1.40
2022-11-01T08:49:35.893Z,1.80
2022-11-01T08:52:03.017Z,1.70
2022-11-01T08:54:30.404Z,1.70
2022-11-01T08:56:57.014Z,1.57
2022-11-01T08:59:23.690Z,1.33
2022-11-01T09:01:51.081Z,1.80
2022-11-01T09:04:17.812Z,1.80
2022-11-01T09:06:44.519Z,2.30
2022-11-01T09:09:11.246Z,2.30
2022-11-01T09:11:38.045Z,2.27
2022-11-01T09:14:04.746Z,2.30
2022-11-01T09:16:32.651Z,2.40
2022-11-01T09:19:01.553Z,1.73
2022-11-01T09:21:31.961Z,1.83
2022-11-01T09:23:58.919Z,1.50
2022-11-01T09:26:27.168Z,1.97
2022-11-01T09:28:55.589Z,2.27
2022-11-01T09:31:22.239Z,1.97
2022-11-01T09:33:48.923Z,1.80
2022-11-01T09:36:15.559Z,2.30
2022-11-01T09:38:42.136Z,2.10
2022-11-01T09:41:15.893Z,1.87
2022-11-01T09:43:45.726Z,1.57
2022-11-01T09:46:16.055Z,1.50
2022-11-01T09:48:44.890Z,1.93
2022-11-01T09:51:18.539Z,1.87
2022-11-01T09:53:45.481Z,2.60
2022-11-01T09:56:23.529Z,1.50
2022-11-01T09:59:04.929Z,1.87
2022-11-01T10:02:05.829Z,1.30
2022-11-01T10:04:46.084Z,2.00
2022-11-01T10:07:32.301Z,1.37
2022-11-01T10:10:17.900Z,2.00
2022-11-01T10:13:03.431Z,1.47
2022-11-01T10:15:48.770Z,1.87
2022-11-01T10:18:30.397Z,1.60
2022-11-01T10:21:00.434Z,1.80
2022-11-01T10:23:33.710Z,1.50
2022-11-01T10:26:00.306Z,1.87
2022-11-01T10:28:37.373Z,1.40
2022-11-01T10:31:06.478Z,2.40
2022-11-01T10:33:38.076Z,2.00
2022-11-01T10:36:21.355Z,1.23
2022-11-01T10:41:45.153Z,1.93
2022-11-01T10:44:22.044Z,1.90
2022-11-01T10:46:51.003Z,1.80
2022-11-01T10:49:35.152Z,1.30
2022-11-01T10:52:17.098Z,1.60
2022-11-01T10:54:45.558Z,1.53
2022-11-01T10:57:26.482Z,1.67
2022-11-01T10:59:54.478Z,1.70
2022-11-01T11:02:25.717Z,1.10
2022-11-01T11:04:52.435Z,1.40
2022-11-01T11:07:21.674Z,1.37
2022-11-01T11:09:51.157Z,1.20
2022-11-01T11:12:20.410Z,1.53
2022-11-01T11:14:51.133Z,1.13
2022-11-01T11:17:35.631Z,1.00
2022-11-01T11:20:06.121Z,1.73
2022-11-01T11:22:37.866Z,1.63
2022-11-01T11:25:04.864Z,1.37
2022-11-01T11:27:33.999Z,1.30
2022-11-01T11:30:05.272Z,1.40
2022-11-01T11:32:38.708Z,1.27
2022-11-01T11:35:08.407Z,1.10
2022-11-01T11:37:38.742Z,1.40
2022-11-01T11:40:19.837Z,1.33
2022-11-01T11:42:51.478Z,1.67
2022-11-01T11:45:29.428Z,1.40
2022-11-01T11:48:14.034Z,1.23
2022-11-01T11:50:41.850Z,1.63
2022-11-01T11:53:23.197Z,1.73
2022-11-01T11:55:58.675Z,1.83
2022-11-01T11:58:25.195Z,1.70
2022-11-01T12:00:58.366Z,1.37
2022-11-01T12:03:25.817Z,1.13
2022-11-01T12:06:05.405Z,1.93
2022-11-01T12:08:45.352Z,1.93
2022-11-01T12:11:12.825Z,1.93
2022-11-01T12:14:00.723Z,1.83
2022-11-01T12:19:00.770Z,1.67
2022-11-01T12:21:39.863Z,1.47
2022-11-01T12:24:21.359Z,1.30
2022-11-01T12:26:50.412Z,1.40
2022-11-01T12:29:55.899Z,1.67
2022-11-01T12:32:39.311Z,1.90
2022-11-01T12:35:26.527Z,1.73
2022-11-01T12:38:09.627Z,1.23
2022-11-01T12:40:38.351Z,1.97
2022-11-01T12:43:16.387Z,1.17
2022-11-01T12:46:11.728Z,2.20
2022-11-01T12:48:47.486Z,1.40
2022-11-01T12:51:28.851Z,1.73
2022-11-01T12:54:00.205Z,1.40
2022-11-01T12:56:27.181Z,1.60
2022-11-01T12:58:56.158Z,2.10
2022-11-01T13:01:38.046Z,1.67
2022-11-01T13:04:31.341Z,1.70
2022-11-01T13:07:18.682Z,1.43
2022-11-01T13:10:02.629Z,1.93
2022-11-01T13:13:04.233Z,1.70
2022-11-01T13:15:57.143Z,1.37
2022-11-01T13:18:41.757Z,1.10
2022-11-01T13:21:19.734Z,1.60
2022-11-01T13:24:04.799Z,1.60
2022-11-01T13:26:46.786Z,2.00
2022-11-01T13:29:32.029Z,1.03
2022-11-01T13:32:19.823Z,2.10
2022-11-01T13:34:58.591Z,1.97
2022-11-01T13:37:34.286Z,2.17
2022-11-01T13:40:11.655Z,2.23
2022-11-01T13:42:40.767Z,2.20
2022-11-01T13:45:21.629Z,2.10
2022-11-01T13:48:14.330Z,3.27
2022-11-01T13:50:54.651Z,2.13
2022-11-01T13:53:33.114Z,1.87
2022-11-01T13:56:11.603Z,2.20
2022-11-01T13:58:38.766Z,1.73
2022-11-01T14:01:37.193Z,1.53
2022-11-01T14:04:13.788Z,2.00
2022-11-01T14:06:51.368Z,1.90
2022-11-01T14:09:18.190Z,2.00
2022-11-01T14:11:48.201Z,1.60
2022-11-01T14:14:30.230Z,1.80
2022-11-01T14:17:18.530Z,1.93
2022-11-01T14:20:10.576Z,2.00
2022-11-01T14:22:38.596Z,1.67
2022-11-01T14:25:10.957Z,2.60
2022-11-01T14:27:38.554Z,1.50
2022-11-01T14:30:23.467Z,1.67
2022-11-01T14:32:57.574Z,1.70
2022-11-01T14:35:28.623Z,1.60
2022-11-01T14:38:00.734Z,1.83
2022-11-01T14:40:29.919Z,1.40
2022-11-01T14:43:03.332Z,1.87
2022-11-01T14:45:39.294Z,1.73
2022-11-01T14:48:18.560Z,2.17
2022-11-01T14:51:01.935Z,1.40
2022-11-01T14:53:37.342Z,1.53
2022-11-01T14:56:15.216Z,1.50
2022-11-01T14:58:42.411Z,1.53
2022-11-01T15:01:27.487Z,1.93
2022-11-01T15:03:56.041Z,1.60
2022-11-01T15:06:43.089Z,1.90
2022-11-01T15:09:20.070Z,2.17
2022-11-01T15:11:46.743Z,1.53
2022-11-01T15:14:20.439Z,2.10
2022-11-01T15:16:47.102Z,2.47
2022-11-01T15:19:20.186Z,2.40
2022-11-01T15:21:47.919Z,1.70
2022-11-01T15:24:24.035Z,1.57
2022-11-01T15:26:51.206Z,1.57
2022-11-01T15:29:20.708Z,1.40
2022-11-01T15:32:05.494Z,2.00
2022-11-01T15:34:34.367Z,1.53
2022-11-01T15:37:21.377Z,1.53
2022-11-01T15:39:48.270Z,1.87
2022-11-01T15:42:18.706Z,2.20
2022-11-01T15:44:46.437Z,2.07
2022-11-01T15:47:26.168Z,1.43
2022-11-01T15:50:05.784Z,1.77
2022-11-01T15:52:35.559Z,1.57
2022-11-01T15:55:04.278Z,1.90
2022-11-01T15:57:36.350Z,1.03
2022-11-01T16:00:18.732Z,2.10
2022-11-01T16:03:00.067Z,2.80
2022-11-01T16:05:32.903Z,1.60
2022-11-01T16:08:00.199Z,1.47
2022-11-01T16:10:32.299Z,1.67
2022-11-01T16:13:00.120Z,1.53
2022-11-01T16:15:34.055Z,1.53
2022-11-01T16:18:13.842Z,1.90
2022-11-01T16:20:41.386Z,1.67
2022-11-01T16:23:12.265Z,2.50
2022-11-01T16:25:39.880Z,2.60
2022-11-01T16:28:45.742Z,1.90
2022-11-01T16:31:28.782Z,1.50
2022-11-01T16:33:56.857Z,1.60
2022-11-01T16:36:34.230Z,2.03
2022-11-01T16:39:01.096Z,1.50
2022-11-01T16:41:39.683Z,1.63
2022-11-01T16:44:15.736Z,1.97
2022-11-01T16:46:42.590Z,2.23
2022-11-01T16:49:20.731Z,1.83
2022-11-01T16:51:47.562Z,1.90
2022-11-01T16:54:14.871Z,1.87
2022-11-01T16:56:50.425Z,2.70
2022-11-01T16:59:27.843Z,1.80
2022-11-01T17:01:58.189Z,1.73
2022-11-01T17:04:26.882Z,2.03
2022-11-01T17:06:55.143Z,1.63
2022-11-01T17:09:22.633Z,1.70
2022-11-01T17:11:51.804Z,1.30
2022-11-01T17:14:20.595Z,2.30
2022-11-01T17:16:48.336Z,2.10
2022-11-01T17:19:37.579Z,1.43
2022-11-01T17:22:08.074Z,2.70
2022-11-01T17:24:35.219Z,2.00
2022-11-01T17:27:05.115Z,3.33
2022-11-01T17:29:32.488Z,2.37
2022-11-01T17:32:00.811Z,2.27
2022-11-01T17:34:28.642Z,2.83
2022-11-01T17:36:57.107Z,2.30
2022-11-01T17:39:27.305Z,2.30
2022-11-01T17:41:54.779Z,2.17
2022-11-01T17:44:21.755Z,2.23
2022-11-01T17:46:48.431Z,2.20
2022-11-01T17:49:16.060Z,2.13
2022-11-01T17:51:43.617Z,2.83
2022-11-01T17:54:10.433Z,2.13
2022-11-01T17:56:37.251Z,2.90
2022-11-01T17:59:04.255Z,2.13
2022-11-01T18:01:30.985Z,2.20
2022-11-01T18:03:57.703Z,1.97
2022-11-01T18:06:24.301Z,2.13
2022-11-01T18:08:52.300Z,2.80
2022-11-01T18:11:56.342Z,2.00
2022-11-01T18:14:39.258Z,1.70
2022-11-01T18:17:34.448Z,2.23
2022-11-01T18:20:45.844Z,2.40
2022-11-01T18:23:19.403Z,2.40
2022-11-01T18:25:50.564Z,2.83
2022-11-01T18:28:23.887Z,2.87
2022-11-01T18:31:15.607Z,2.00
2022-11-01T18:33:56.251Z,3.10
2022-11-01T18:36:44.777Z,2.20
2022-11-01T18:39:21.135Z,2.10
2022-11-01T18:41:48.052Z,1.83
2022-11-01T18:44:14.683Z,1.93
2022-11-01T18:46:53.755Z,2.00
2022-11-01T18:49:21.546Z,2.77
2022-11-01T18:51:50.058Z,2.43
2022-11-01T18:54:30.152Z,2.23
2022-11-01T18:56:59.710Z,2.20
2022-11-01T18:59:36.756Z,2.43
2022-11-01T19:02:23.419Z,2.77
2022-11-01T19:04:52.191Z,2.40
2022-11-01T19:07:22.489Z,2.00
2022-11-01T19:09:52.917Z,2.83
2022-11-01T19:12:27.861Z,2.10
2022-11-01T19:15:23.040Z,2.70
2022-11-01T19:17:56.244Z,3.17
2022-11-01T19:20:28.568Z,2.70
2022-11-01T19:23:01.166Z,2.10
2022-11-01T19:25:32.338Z,2.10
2022-11-01T19:28:05.862Z,2.50
2022-11-01T19:30:33.666Z,1.80
2022-11-01T19:33:20.502Z,2.27
2022-11-01T19:35:52.118Z,1.43
2022-11-01T19:38:19.688Z,2.50
2022-11-01T19:40:49.549Z,2.30
2022-11-01T19:43:20.178Z,2.50
2022-11-01T19:45:50.242Z,1.73
2022-11-01T19:48:20.570Z,1.90
2022-11-01T19:50:47.789Z,2.00
2022-11-01T19:53:26.761Z,1.90
2022-11-01T19:56:16.091Z,2.17
2022-11-01T19:58:45.844Z,2.13
2022-11-01T20:01:27.443Z,2.50
2022-11-01T20:03:57.243Z,1.90
2022-11-01T20:06:41.307Z,1.87
2022-11-01T20:09:29.417Z,2.50
2022-11-01T20:11:56.083Z,1.87
2022-11-01T20:14:22.813Z,1.93
2022-11-01T20:16:50.029Z,2.67
2022-11-01T20:19:18.001Z,2.80
2022-11-01T20:21:45.012Z,2.40
2022-11-01T20:24:11.630Z,2.00
2022-11-01T20:26:38.744Z,2.07
2022-11-01T20:29:05.361Z,1.90
2022-11-01T20:31:32.236Z,2.00
2022-11-01T20:33:59.908Z,2.20
2022-11-01T20:36:27.270Z,2.27
2022-11-01T20:38:53.989Z,2.10
2022-11-01T20:41:21.168Z,2.60
2022-11-01T20:43:48.070Z,1.80
2022-11-01T20:46:14.690Z,2.10
2022-11-01T20:48:41.352Z,2.00
2022-11-01T20:51:08.133Z,2.47
2022-11-01T20:53:34.771Z,2.07
2022-11-01T20:56:02.094Z,3.37
2022-11-01T20:58:28.890Z,2.10
2022-11-01T21:00:56.293Z,2.83
2022-11-01T21:03:24.717Z,2.20
2022-11-01T21:05:51.882Z,2.30
2022-11-01T21:08:24.722Z,2.40
2022-11-01T21:11:06.042Z,2.50
2022-11-01T21:13:39.082Z,2.03
2022-11-01T21:16:22.118Z,2.10
2022-11-01T21:18:52.270Z,2.30
2022-11-01T21:21:27.609Z,2.10
2022-11-01T21:23:54.889Z,2.20
2022-11-01T21:26:23.870Z,3.13
2022-11-01T21:28:53.351Z,2.57
2022-11-01T21:31:34.323Z,2.03
2022-11-01T21:34:05.651Z,2.00
2022-11-01T21:36:40.414Z,2.00
2022-11-01T21:39:23.815Z,1.50
2022-11-01T21:41:52.099Z,2.60
2022-11-01T21:44:18.907Z,1.93
2022-11-01T21:47:11.722Z,1.80
2022-11-01T21:49:38.433Z,2.10
2022-11-01T21:52:07.816Z,2.30
2022-11-01T21:54:36.806Z,1.80
2022-11-01T21:57:05.298Z,1.90
2022-11-01T21:59:32.456Z,2.20
2022-11-01T22:02:03.458Z,2.50
2022-11-01T22:04:31.068Z,2.57
2022-11-01T22:06:58.992Z,2.07
2022-11-01T22:09:26.262Z,3.03
2022-11-01T22:11:53.065Z,2.70
2022-11-01T22:14:19.891Z,3.07
2022-11-01T22:16:46.555Z,2.43
2022-11-01T22:19:13.264Z,2.50
2022-11-01T22:21:39.955Z,2.50
2022-11-01T22:24:06.829Z,2.13
2022-11-01T22:26:33.576Z,2.07
2022-11-01T22:29:00.163Z,2.03
2022-11-01T22:31:26.971Z,2.17
2022-11-01T22:33:57.106Z,2.17
2022-11-01T22:36:26.670Z,2.33
2022-11-01T22:39:00.848Z,2.60
2022-11-01T22:41:33.181Z,2.20
2022-11-01T22:44:06.326Z,2.50
2022-11-01T22:46:59.456Z,2.37
2022-11-01T22:49:26.070Z,2.50
2022-11-01T22:52:16.553Z,2.20
2022-11-01T22:54:47.412Z,2.63
2022-11-01T22:57:17.783Z,2.30
2022-11-01T22:59:50.992Z,2.00
2022-11-01T23:02:29.700Z,2.53
2022-11-01T23:05:18.334Z,1.87
2022-11-01T23:07:50.436Z,2.00
2022-11-01T23:10:30.572Z,2.00
2022-11-01T23:13:30.783Z,2.10
2022-11-01T23:16:03.151Z,2.10
2022-11-01T23:18:33.854Z,2.13
2022-11-01T23:21:08.738Z,2.20
2022-11-01T23:23:37.091Z,1.73
2022-11-01T23:26:04.430Z,2.20
2022-11-01T23:28:34.954Z,1.73
2022-11-01T23:31:06.540Z,1.83
2022-11-01T23:33:39.709Z,2.30
2022-11-01T23:36:16.149Z,2.17
2022-11-01T23:38:49.604Z,2.47
2022-11-01T23:41:27.587Z,2.30
2022-11-01T23:43:58.022Z,2.30
2022-11-01T23:46:26.403Z,2.27
2022-11-01T23:49:00.504Z,1.90
2022-11-01T23:51:28.764Z,1.83
2022-11-01T23:53:56.374Z,2.20
2022-11-01T23:56:23.271Z,2.27
2022-11-01T23:58:56.144Z,2.33
